sensor_id;sensor_type;location;lat;lon;timestamp;P1;durP1;ratioP1;P2;durP2;ratioP2
71172;SDS011;58875;51.996;4.504;2023-07-13T00:02:22;7.35;;;5.92;;
71172;SDS011;58875;51.996;4.504;2023-07-13T00:04:49;6.80;;;5.51;;
71172;SDS011;58875;51.996;4.504;2023-07-13T00:07:15;7.54;;;5.98;;
71172;SDS011;58875;51.996;4.504;2023-07-13T00:09:45;7.60;;;5.95;;
71172;SDS011;58875;51.996;4.504;2023-07-13T00:12:22;6.28;;;5.06;;
71172;SDS011;58875;51.996;4.504;2023-07-13T00:14:55;6.25;;;5.09;;
71172;SDS011;58875;51.996;4.504;2023-07-13T00:17:22;6.54;;;5.21;;
71172;SDS011;58875;51.996;4.504;2023-07-13T00:19:48;7.36;;;5.76;;
71172;SDS011;58875;51.996;4.504;2023-07-13T00:22:13;6.29;;;4.93;;
71172;SDS011;58875;51.996;4.504;2023-07-13T00:24:39;5.49;;;4.39;;
71172;SDS011;58875;51.996;4.504;2023-07-13T00:27:07;5.96;;;4.77;;
71172;SDS011;58875;51.996;4.504;2023-07-13T00:29:37;6.00;;;4.77;;
71172;SDS011;58875;51.996;4.504;2023-07-13T00:32:03;6.14;;;4.86;;
71172;SDS011;58875;51.996;4.504;2023-07-13T00:34:30;5.62;;;4.50;;
71172;SDS011;58875;51.996;4.504;2023-07-13T00:36:56;6.06;;;4.82;;
71172;SDS011;58875;51.996;4.504;2023-07-13T00:39:22;6.02;;;4.72;;
71172;SDS011;58875;51.996;4.504;2023-07-13T00:41:48;5.65;;;4.51;;
71172;SDS011;58875;51.996;4.504;2023-07-13T00:44:14;6.32;;;4.91;;
71172;SDS011;58875;51.996;4.504;2023-07-13T00:46:41;5.86;;;4.62;;
71172;SDS011;58875;51.996;4.504;2023-07-13T00:49:08;5.88;;;4.68;;
71172;SDS011;58875;51.996;4.504;2023-07-13T00:51:52;6.14;;;4.83;;
71172;SDS011;58875;51.996;4.504;2023-07-13T00:54:23;5.61;;;4.42;;
71172;SDS011;58875;51.996;4.504;2023-07-13T00:56:53;5.52;;;4.41;;
71172;SDS011;58875;51.996;4.504;2023-07-13T00:59:24;6.02;;;4.72;;
71172;SDS011;58875;51.996;4.504;2023-07-13T01:01:51;5.76;;;4.53;;
71172;SDS011;58875;51.996;4.504;2023-07-13T01:04:17;5.48;;;4.31;;
71172;SDS011;58875;51.996;4.504;2023-07-13T01:06:43;6.51;;;5.08;;
71172;SDS011;58875;51.996;4.504;2023-07-13T01:09:12;5.53;;;4.41;;
71172;SDS011;58875;51.996;4.504;2023-07-13T01:11:40;5.85;;;4.64;;
71172;SDS011;58875;51.996;4.504;2023-07-13T01:14:06;5.57;;;4.40;;
71172;SDS011;58875;51.996;4.504;2023-07-13T01:16:33;5.79;;;4.52;;
71172;SDS011;58875;51.996;4.504;2023-07-13T01:19:00;5.62;;;4.48;;
71172;SDS011;58875;51.996;4.504;2023-07-13T01:21:31;4.72;;;3.84;;
71172;SDS011;58875;51.996;4.504;2023-07-13T01:23:58;4.50;;;3.75;;
71172;SDS011;58875;51.996;4.504;2023-07-13T01:26:23;4.31;;;3.53;;
71172;SDS011;58875;51.996;4.504;2023-07-13T01:28:49;4.14;;;3.39;;
71172;SDS011;58875;51.996;4.504;2023-07-13T01:31:15;3.87;;;3.25;;
71172;SDS011;58875;51.996;4.504;2023-07-13T01:33:40;3.49;;;2.96;;
71172;SDS011;58875;51.996;4.504;2023-07-13T01:36:07;4.21;;;3.52;;
71172;SDS011;58875;51.996;4.504;2023-07-13T01:38:36;3.72;;;3.11;;
71172;SDS011;58875;51.996;4.504;2023-07-13T01:41:02;3.51;;;2.96;;
71172;SDS011;58875;51.996;4.504;2023-07-13T01:43:29;3.24;;;2.72;;
71172;SDS011;58875;51.996;4.504;2023-07-13T01:45:54;3.03;;;2.56;;
71172;SDS011;58875;51.996;4.504;2023-07-13T01:48:20;2.82;;;2.39;;
71172;SDS011;58875;51.996;4.504;2023-07-13T01:50:46;2.84;;;2.44;;
71172;SDS011;58875;51.996;4.504;2023-07-13T01:53:12;2.26;;;1.97;;
71172;SDS011;58875;51.996;4.504;2023-07-13T01:55:38;2.36;;;2.04;;
71172;SDS011;58875;51.996;4.504;2023-07-13T01:58:04;2.14;;;1.87;;
71172;SDS011;58875;51.996;4.504;2023-07-13T02:00:30;1.83;;;1.59;;
71172;SDS011;58875;51.996;4.504;2023-07-13T02:02:56;2.18;;;1.88;;
71172;SDS011;58875;51.996;4.504;2023-07-13T02:05:21;2.20;;;1.93;;
71172;SDS011;58875;51.996;4.504;2023-07-13T02:07:47;2.37;;;2.11;;
71172;SDS011;58875;51.996;4.504;2023-07-13T02:10:12;2.21;;;1.98;;
71172;SDS011;58875;51.996;4.504;2023-07-13T02:12:39;2.18;;;1.99;;
71172;SDS011;58875;51.996;4.504;2023-07-13T02:15:05;2.42;;;2.17;;
71172;SDS011;58875;51.996;4.504;2023-07-13T02:17:31;2.39;;;2.17;;
71172;SDS011;58875;51.996;4.504;2023-07-13T02:19:59;2.42;;;2.19;;
71172;SDS011;58875;51.996;4.504;2023-07-13T02:22:24;2.80;;;2.45;;
71172;SDS011;58875;51.996;4.504;2023-07-13T02:24:50;2.88;;;2.55;;
71172;SDS011;58875;51.996;4.504;2023-07-13T02:27:15;3.36;;;2.92;;
71172;SDS011;58875;51.996;4.504;2023-07-13T02:29:41;2.93;;;2.64;;
71172;SDS011;58875;51.996;4.504;2023-07-13T02:32:07;3.10;;;2.86;;
71172;SDS011;58875;51.996;4.504;2023-07-13T02:34:33;3.00;;;2.80;;
71172;SDS011;58875;51.996;4.504;2023-07-13T02:36:59;3.23;;;2.97;;
71172;SDS011;58875;51.996;4.504;2023-07-13T02:39:26;3.30;;;3.02;;
71172;SDS011;58875;51.996;4.504;2023-07-13T02:41:52;3.84;;;3.44;;
71172;SDS011;58875;51.996;4.504;2023-07-13T02:44:17;4.12;;;3.57;;
71172;SDS011;58875;51.996;4.504;2023-07-13T02:46:43;4.17;;;3.60;;
71172;SDS011;58875;51.996;4.504;2023-07-13T02:49:09;4.49;;;3.82;;
71172;SDS011;58875;51.996;4.504;2023-07-13T02:51:35;4.63;;;3.93;;
71172;SDS011;58875;51.996;4.504;2023-07-13T02:54:01;4.83;;;4.11;;
71172;SDS011;58875;51.996;4.504;2023-07-13T02:56:28;5.43;;;4.52;;
71172;SDS011;58875;51.996;4.504;2023-07-13T02:58:57;5.28;;;4.42;;
71172;SDS011;58875;51.996;4.504;2023-07-13T03:01:23;5.32;;;4.45;;
71172;SDS011;58875;51.996;4.504;2023-07-13T03:03:50;5.76;;;4.71;;
71172;SDS011;58875;51.996;4.504;2023-07-13T03:06:17;5.73;;;4.68;;
71172;SDS011;58875;51.996;4.504;2023-07-13T03:08:43;6.37;;;5.17;;
71172;SDS011;58875;51.996;4.504;2023-07-13T03:11:17;5.91;;;4.85;;
71172;SDS011;58875;51.996;4.504;2023-07-13T03:13:44;5.08;;;4.25;;
71172;SDS011;58875;51.996;4.504;2023-07-13T03:16:10;5.16;;;4.36;;
71172;SDS011;58875;51.996;4.504;2023-07-13T03:18:37;6.04;;;4.97;;
71172;SDS011;58875;51.996;4.504;2023-07-13T03:21:03;5.96;;;4.79;;
71172;SDS011;58875;51.996;4.504;2023-07-13T03:23:30;6.45;;;5.22;;
71172;SDS011;58875;51.996;4.504;2023-07-13T03:28:33;6.21;;;4.94;;
71172;SDS011;58875;51.996;4.504;2023-07-13T03:31:03;6.39;;;5.11;;
71172;SDS011;58875;51.996;4.504;2023-07-13T03:33:31;6.62;;;5.23;;
71172;SDS011;58875;51.996;4.504;2023-07-13T03:35:56;6.46;;;5.14;;
71172;SDS011;58875;51.996;4.504;2023-07-13T03:38:28;6.27;;;5.04;;
71172;SDS011;58875;51.996;4.504;2023-07-13T03:40:53;6.13;;;4.90;;
71172;SDS011;58875;51.996;4.504;2023-07-13T03:43:19;6.60;;;5.23;;
71172;SDS011;58875;51.996;4.504;2023-07-13T03:45:45;5.69;;;4.56;;
71172;SDS011;58875;51.996;4.504;2023-07-13T03:48:11;5.85;;;4.70;;
71172;SDS011;58875;51.996;4.504;2023-07-13T03:50:37;5.70;;;4.62;;
71172;SDS011;58875;51.996;4.504;2023-07-13T03:53:03;5.92;;;4.77;;
71172;SDS011;58875;51.996;4.504;2023-07-13T03:55:29;6.23;;;4.99;;
71172;SDS011;58875;51.996;4.504;2023-07-13T03:58:38;5.17;;;4.22;;
71172;SDS011;58875;51.996;4.504;2023-07-13T04:01:13;5.45;;;4.35;;
71172;SDS011;58875;51.996;4.504;2023-07-13T04:03:41;5.53;;;4.47;;
71172;SDS011;58875;51.996;4.504;2023-07-13T04:06:12;5.08;;;4.20;;
71172;SDS011;58875;51.996;4.504;2023-07-13T04:08:47;5.55;;;4.57;;
71172;SDS011;58875;51.996;4.504;2023-07-13T04:11:15;4.97;;;4.12;;
71172;SDS011;58875;51.996;4.504;2023-07-13T04:13:41;5.18;;;4.31;;
71172;SDS011;58875;51.996;4.504;2023-07-13T04:16:06;5.47;;;4.51;;
71172;SDS011;58875;51.996;4.504;2023-07-13T04:18:32;4.83;;;4.18;;
71172;SDS011;58875;51.996;4.504;2023-07-13T04:20:57;4.76;;;4.07;;
71172;SDS011;58875;51.996;4.504;2023-07-13T04:23:23;4.74;;;4.04;;
71172;SDS011;58875;51.996;4.504;2023-07-13T04:25:49;4.64;;;3.98;;
71172;SDS011;58875;51.996;4.504;2023-07-13T04:28:18;4.74;;;4.05;;
71172;SDS011;58875;51.996;4.504;2023-07-13T04:30:48;4.81;;;4.06;;
71172;SDS011;58875;51.996;4.504;2023-07-13T04:33:14;5.10;;;4.25;;
71172;SDS011;58875;51.996;4.504;2023-07-13T04:35:42;5.12;;;4.27;;
71172;SDS011;58875;51.996;4.504;2023-07-13T04:38:08;4.59;;;3.93;;
71172;SDS011;58875;51.996;4.504;2023-07-13T04:40:36;4.33;;;3.78;;
71172;SDS011;58875;51.996;4.504;2023-07-13T04:43:02;4.78;;;4.07;;
71172;SDS011;58875;51.996;4.504;2023-07-13T04:45:28;4.43;;;3.79;;
71172;SDS011;58875;51.996;4.504;2023-07-13T04:47:56;4.32;;;3.78;;
71172;SDS011;58875;51.996;4.504;2023-07-13T04:50:21;4.09;;;3.64;;
71172;SDS011;58875;51.996;4.504;2023-07-13T04:52:51;3.77;;;3.45;;
71172;SDS011;58875;51.996;4.504;2023-07-13T04:55:17;3.93;;;3.64;;
71172;SDS011;58875;51.996;4.504;2023-07-13T04:57:44;3.92;;;3.61;;
71172;SDS011;58875;51.996;4.504;2023-07-13T05:00:10;3.81;;;3.49;;
71172;SDS011;58875;51.996;4.504;2023-07-13T05:02:38;3.92;;;3.55;;
71172;SDS011;58875;51.996;4.504;2023-07-13T05:05:05;3.91;;;3.46;;
71172;SDS011;58875;51.996;4.504;2023-07-13T05:07:31;4.10;;;3.62;;
71172;SDS011;58875;51.996;4.504;2023-07-13T05:09:58;4.12;;;3.64;;
71172;SDS011;58875;51.996;4.504;2023-07-13T05:12:25;3.70;;;3.33;;
71172;SDS011;58875;51.996;4.504;2023-07-13T05:14:51;3.99;;;3.63;;
71172;SDS011;58875;51.996;4.504;2023-07-13T05:17:16;3.64;;;3.35;;
71172;SDS011;58875;51.996;4.504;2023-07-13T05:19:42;3.66;;;3.38;;
71172;SDS011;58875;51.996;4.504;2023-07-13T05:22:08;3.54;;;3.25;;
71172;SDS011;58875;51.996;4.504;2023-07-13T05:24:33;3.53;;;3.30;;
71172;SDS011;58875;51.996;4.504;2023-07-13T05:26:59;3.31;;;3.15;;
71172;SDS011;58875;51.996;4.504;2023-07-13T05:29:25;3.32;;;3.19;;
71172;SDS011;58875;51.996;4.504;2023-07-13T05:31:50;3.22;;;3.06;;
71172;SDS011;58875;51.996;4.504;2023-07-13T05:34:16;3.35;;;3.22;;
71172;SDS011;58875;51.996;4.504;2023-07-13T05:36:42;3.19;;;3.10;;
71172;SDS011;58875;51.996;4.504;2023-07-13T05:39:07;3.40;;;3.23;;
71172;SDS011;58875;51.996;4.504;2023-07-13T05:41:33;3.52;;;3.35;;
71172;SDS011;58875;51.996;4.504;2023-07-13T05:43:59;3.44;;;3.29;;
71172;SDS011;58875;51.996;4.504;2023-07-13T05:46:25;3.37;;;3.26;;
71172;SDS011;58875;51.996;4.504;2023-07-13T05:48:51;3.51;;;3.39;;
71172;SDS011;58875;51.996;4.504;2023-07-13T05:51:17;3.51;;;3.38;;
71172;SDS011;58875;51.996;4.504;2023-07-13T05:53:42;3.91;;;3.68;;
71172;SDS011;58875;51.996;4.504;2023-07-13T05:56:08;3.84;;;3.63;;
71172;SDS011;58875;51.996;4.504;2023-07-13T05:58:33;3.71;;;3.57;;
71172;SDS011;58875;51.996;4.504;2023-07-13T06:01:01;3.65;;;3.51;;
71172;SDS011;58875;51.996;4.504;2023-07-13T06:03:32;3.32;;;3.30;;
71172;SDS011;58875;51.996;4.504;2023-07-13T06:05:58;3.74;;;3.64;;
71172;SDS011;58875;51.996;4.504;2023-07-13T06:08:27;4.44;;;4.23;;
71172;SDS011;58875;51.996;4.504;2023-07-13T06:10:53;4.35;;;4.15;;
71172;SDS011;58875;51.996;4.504;2023-07-13T06:13:18;4.35;;;4.12;;
71172;SDS011;58875;51.996;4.504;2023-07-13T06:15:48;4.19;;;4.02;;
71172;SDS011;58875;51.996;4.504;2023-07-13T06:18:14;4.06;;;4.04;;
71172;SDS011;58875;51.996;4.504;2023-07-13T06:20:40;3.63;;;3.61;;
71172;SDS011;58875;51.996;4.504;2023-07-13T06:23:05;3.91;;;3.82;;
71172;SDS011;58875;51.996;4.504;2023-07-13T06:25:31;4.06;;;3.88;;
71172;SDS011;58875;51.996;4.504;2023-07-13T06:27:56;4.04;;;3.85;;
71172;SDS011;58875;51.996;4.504;2023-07-13T06:30:22;4.09;;;3.93;;
71172;SDS011;58875;51.996;4.504;2023-07-13T06:32:47;3.67;;;3.51;;
71172;SDS011;58875;51.996;4.504;2023-07-13T06:35:13;3.58;;;3.48;;
71172;SDS011;58875;51.996;4.504;2023-07-13T06:37:38;3.36;;;3.35;;
71172;SDS011;58875;51.996;4.504;2023-07-13T06:40:04;3.46;;;3.44;;
71172;SDS011;58875;51.996;4.504;2023-07-13T06:42:31;3.53;;;3.47;;
71172;SDS011;58875;51.996;4.504;2023-07-13T06:44:56;3.79;;;3.74;;
71172;SDS011;58875;51.996;4.504;2023-07-13T06:47:22;3.45;;;3.40;;
71172;SDS011;58875;51.996;4.504;2023-07-13T06:49:47;3.51;;;3.45;;
71172;SDS011;58875;51.996;4.504;2023-07-13T06:52:13;3.15;;;3.15;;
71172;SDS011;58875;51.996;4.504;2023-07-13T06:54:39;3.35;;;3.35;;
71172;SDS011;58875;51.996;4.504;2023-07-13T06:57:04;3.14;;;3.14;;
71172;SDS011;58875;51.996;4.504;2023-07-13T06:59:30;3.25;;;3.25;;
71172;SDS011;58875;51.996;4.504;2023-07-13T07:01:55;3.37;;;3.37;;
71172;SDS011;58875;51.996;4.504;2023-07-13T07:04:21;3.27;;;3.27;;
71172;SDS011;58875;51.996;4.504;2023-07-13T07:06:47;3.51;;;3.51;;
71172;SDS011;58875;51.996;4.504;2023-07-13T07:09:12;3.55;;;3.52;;
71172;SDS011;58875;51.996;4.504;2023-07-13T07:11:38;3.46;;;3.46;;
71172;SDS011;58875;51.996;4.504;2023-07-13T07:14:04;3.46;;;3.46;;
71172;SDS011;58875;51.996;4.504;2023-07-13T07:16:29;3.60;;;3.60;;
71172;SDS011;58875;51.996;4.504;2023-07-13T07:18:55;3.55;;;3.55;;
71172;SDS011;58875;51.996;4.504;2023-07-13T07:21:21;3.60;;;3.60;;
71172;SDS011;58875;51.996;4.504;2023-07-13T07:23:48;3.94;;;3.94;;
71172;SDS011;58875;51.996;4.504;2023-07-13T07:26:14;3.88;;;3.88;;
71172;SDS011;58875;51.996;4.504;2023-07-13T07:28:40;3.61;;;3.61;;
71172;SDS011;58875;51.996;4.504;2023-07-13T07:31:06;3.91;;;3.91;;
71172;SDS011;58875;51.996;4.504;2023-07-13T07:33:32;3.59;;;3.59;;
71172;SDS011;58875;51.996;4.504;2023-07-13T07:35:59;3.50;;;3.50;;
71172;SDS011;58875;51.996;4.504;2023-07-13T07:38:25;3.66;;;3.66;;
71172;SDS011;58875;51.996;4.504;2023-07-13T07:40:52;3.57;;;3.57;;
71172;SDS011;58875;51.996;4.504;2023-07-13T07:43:18;3.97;;;3.97;;
71172;SDS011;58875;51.996;4.504;2023-07-13T07:45:44;3.65;;;3.65;;
71172;SDS011;58875;51.996;4.504;2023-07-13T07:48:10;3.69;;;3.69;;
71172;SDS011;58875;51.996;4.504;2023-07-13T07:50:36;3.58;;;3.58;;
71172;SDS011;58875;51.996;4.504;2023-07-13T07:53:03;3.60;;;3.60;;
71172;SDS011;58875;51.996;4.504;2023-07-13T07:55:32;3.63;;;3.63;;
71172;SDS011;58875;51.996;4.504;2023-07-13T07:57:59;3.91;;;3.91;;
71172;SDS011;58875;51.996;4.504;2023-07-13T08:00:24;4.10;;;4.10;;
71172;SDS011;58875;51.996;4.504;2023-07-13T08:02:50;3.84;;;3.84;;
71172;SDS011;58875;51.996;4.504;2023-07-13T08:05:15;3.93;;;3.93;;
71172;SDS011;58875;51.996;4.504;2023-07-13T08:07:41;4.02;;;4.02;;
71172;SDS011;58875;51.996;4.504;2023-07-13T08:10:07;3.88;;;3.88;;
71172;SDS011;58875;51.996;4.504;2023-07-13T08:12:34;4.24;;;4.24;;
71172;SDS011;58875;51.996;4.504;2023-07-13T08:15:01;3.88;;;3.88;;
71172;SDS011;58875;51.996;4.504;2023-07-13T08:17:27;3.75;;;3.75;;
71172;SDS011;58875;51.996;4.504;2023-07-13T08:19:53;3.48;;;3.48;;
71172;SDS011;58875;51.996;4.504;2023-07-13T08:22:18;3.52;;;3.52;;
71172;SDS011;58875;51.996;4.504;2023-07-13T08:24:44;3.75;;;3.75;;
71172;SDS011;58875;51.996;4.504;2023-07-13T08:27:10;3.75;;;3.75;;
71172;SDS011;58875;51.996;4.504;2023-07-13T08:29:36;3.76;;;3.76;;
71172;SDS011;58875;51.996;4.504;2023-07-13T08:32:02;3.58;;;3.58;;
71172;SDS011;58875;51.996;4.504;2023-07-13T08:34:29;3.92;;;3.92;;
71172;SDS011;58875;51.996;4.504;2023-07-13T08:36:55;3.71;;;3.71;;
71172;SDS011;58875;51.996;4.504;2023-07-13T08:39:20;3.76;;;3.76;;
71172;SDS011;58875;51.996;4.504;2023-07-13T08:41:46;4.18;;;4.18;;
71172;SDS011;58875;51.996;4.504;2023-07-13T08:44:26;4.28;;;4.28;;
71172;SDS011;58875;51.996;4.504;2023-07-13T08:47:00;3.94;;;3.94;;
71172;SDS011;58875;51.996;4.504;2023-07-13T08:49:27;3.95;;;3.95;;
71172;SDS011;58875;51.996;4.504;2023-07-13T08:52:29;3.78;;;3.78;;
71172;SDS011;58875;51.996;4.504;2023-07-13T08:55:05;4.05;;;4.05;;
71172;SDS011;58875;51.996;4.504;2023-07-13T08:57:41;4.48;;;4.48;;
71172;SDS011;58875;51.996;4.504;2023-07-13T09:00:11;4.45;;;4.45;;
71172;SDS011;58875;51.996;4.504;2023-07-13T09:05:25;4.14;;;4.14;;
71172;SDS011;58875;51.996;4.504;2023-07-13T09:11:13;4.19;;;4.19;;
71172;SDS011;58875;51.996;4.504;2023-07-13T09:16:29;4.34;;;4.34;;
71172;SDS011;58875;51.996;4.504;2023-07-13T09:18:56;4.26;;;4.26;;
71172;SDS011;58875;51.996;4.504;2023-07-13T09:21:30;4.40;;;4.40;;
71172;SDS011;58875;51.996;4.504;2023-07-13T09:26:54;3.81;;;3.81;;
71172;SDS011;58875;51.996;4.504;2023-07-13T09:29:29;3.25;;;3.25;;
71172;SDS011;58875;51.996;4.504;2023-07-13T09:32:03;2.82;;;2.82;;
71172;SDS011;58875;51.996;4.504;2023-07-13T09:34:34;3.25;;;3.25;;
71172;SDS011;58875;51.996;4.504;2023-07-13T09:36:59;3.60;;;3.60;;
71172;SDS011;58875;51.996;4.504;2023-07-13T09:39:27;3.94;;;3.94;;
71172;SDS011;58875;51.996;4.504;2023-07-13T09:42:12;3.52;;;3.52;;
71172;SDS011;58875;51.996;4.504;2023-07-13T09:47:18;3.82;;;3.82;;
71172;SDS011;58875;51.996;4.504;2023-07-13T09:49:48;4.74;;;4.74;;
71172;SDS011;58875;51.996;4.504;2023-07-13T09:52:20;4.00;;;4.00;;
71172;SDS011;58875;51.996;4.504;2023-07-13T09:54:48;4.72;;;4.72;;
71172;SDS011;58875;51.996;4.504;2023-07-13T09:57:16;4.37;;;4.37;;
71172;SDS011;58875;51.996;4.504;2023-07-13T09:59:45;4.56;;;4.56;;
71172;SDS011;58875;51.996;4.504;2023-07-13T10:05:09;4.64;;;4.64;;
71172;SDS011;58875;51.996;4.504;2023-07-13T10:07:39;4.71;;;4.71;;
71172;SDS011;58875;51.996;4.504;2023-07-13T10:10:14;4.49;;;4.49;;
71172;SDS011;58875;51.996;4.504;2023-07-13T10:12:42;4.05;;;4.05;;
71172;SDS011;58875;51.996;4.504;2023-07-13T10:15:16;4.15;;;4.15;;
71172;SDS011;58875;51.996;4.504;2023-07-13T10:17:45;3.97;;;3.97;;
71172;SDS011;58875;51.996;4.504;2023-07-13T10:20:12;4.03;;;4.03;;
71172;SDS011;58875;51.996;4.504;2023-07-13T10:25:39;4.13;;;4.13;;
71172;SDS011;58875;51.996;4.504;2023-07-13T10:30:53;4.05;;;4.05;;
71172;SDS011;58875;51.996;4.504;2023-07-13T10:33:23;4.02;;;4.02;;
71172;SDS011;58875;51.996;4.504;2023-07-13T10:35:50;4.05;;;4.05;;
71172;SDS011;58875;51.996;4.504;2023-07-13T10:38:30;3.91;;;3.91;;
71172;SDS011;58875;51.996;4.504;2023-07-13T10:40:59;4.14;;;4.14;;
71172;SDS011;58875;51.996;4.504;2023-07-13T10:43:41;3.84;;;3.84;;
71172;SDS011;58875;51.996;4.504;2023-07-13T10:46:11;3.81;;;3.81;;
71172;SDS011;58875;51.996;4.504;2023-07-13T10:48:41;3.79;;;3.79;;
71172;SDS011;58875;51.996;4.504;2023-07-13T10:51:13;3.63;;;3.63;;
71172;SDS011;58875;51.996;4.504;2023-07-13T10:53:42;3.55;;;3.55;;
71172;SDS011;58875;51.996;4.504;2023-07-13T10:59:00;3.89;;;3.89;;
71172;SDS011;58875;51.996;4.504;2023-07-13T11:01:46;3.97;;;3.97;;
71172;SDS011;58875;51.996;4.504;2023-07-13T11:04:23;4.13;;;4.13;;
71172;SDS011;58875;51.996;4.504;2023-07-13T11:06:53;3.91;;;3.91;;
71172;SDS011;58875;51.996;4.504;2023-07-13T11:12:00;3.72;;;3.72;;
71172;SDS011;58875;51.996;4.504;2023-07-13T11:14:36;3.53;;;3.53;;
71172;SDS011;58875;51.996;4.504;2023-07-13T11:20:19;3.44;;;3.44;;
71172;SDS011;58875;51.996;4.504;2023-07-13T11:25:31;3.19;;;3.19;;
71172;SDS011;58875;51.996;4.504;2023-07-13T11:30:46;3.25;;;3.25;;
71172;SDS011;58875;51.996;4.504;2023-07-13T11:33:23;3.41;;;3.41;;
71172;SDS011;58875;51.996;4.504;2023-07-13T11:36:16;3.38;;;3.38;;
71172;SDS011;58875;51.996;4.504;2023-07-13T11:39:32;3.42;;;3.42;;
71172;SDS011;58875;51.996;4.504;2023-07-13T11:41:43;3.36;;;3.36;;
71172;SDS011;58875;51.996;4.504;2023-07-13T11:44:16;3.47;;;3.46;;
71172;SDS011;58875;51.996;4.504;2023-07-13T11:46:48;3.48;;;3.46;;
71172;SDS011;58875;51.996;4.504;2023-07-13T11:49:20;3.23;;;3.23;;
71172;SDS011;58875;51.996;4.504;2023-07-13T11:51:47;3.28;;;3.28;;
71172;SDS011;58875;51.996;4.504;2023-07-13T11:56:47;3.29;;;3.29;;
71172;SDS011;58875;51.996;4.504;2023-07-13T11:59:14;3.16;;;3.16;;
71172;SDS011;58875;51.996;4.504;2023-07-13T12:01:43;3.15;;;3.15;;
71172;SDS011;58875;51.996;4.504;2023-07-13T12:07:05;3.26;;;3.26;;
71172;SDS011;58875;51.996;4.504;2023-07-13T12:09:34;3.23;;;3.23;;
71172;SDS011;58875;51.996;4.504;2023-07-13T12:12:02;3.26;;;3.26;;
71172;SDS011;58875;51.996;4.504;2023-07-13T12:14:28;3.32;;;3.32;;
71172;SDS011;58875;51.996;4.504;2023-07-13T12:16:53;3.25;;;3.25;;
71172;SDS011;58875;51.996;4.504;2023-07-13T12:19:30;3.22;;;3.22;;
71172;SDS011;58875;51.996;4.504;2023-07-13T12:21:56;3.45;;;3.45;;
71172;SDS011;58875;51.996;4.504;2023-07-13T12:24:24;3.31;;;3.31;;
71172;SDS011;58875;51.996;4.504;2023-07-13T12:27:02;3.29;;;3.29;;
71172;SDS011;58875;51.996;4.504;2023-07-13T12:29:30;3.16;;;3.16;;
71172;SDS011;58875;51.996;4.504;2023-07-13T12:31:57;3.21;;;3.21;;
71172;SDS011;58875;51.996;4.504;2023-07-13T12:34:25;3.16;;;3.16;;
71172;SDS011;58875;51.996;4.504;2023-07-13T12:36:53;3.00;;;3.00;;
71172;SDS011;58875;51.996;4.504;2023-07-13T12:39:39;2.91;;;2.91;;
71172;SDS011;58875;51.996;4.504;2023-07-13T12:44:54;2.74;;;2.74;;
71172;SDS011;58875;51.996;4.504;2023-07-13T12:47:22;2.87;;;2.87;;
71172;SDS011;58875;51.996;4.504;2023-07-13T12:49:49;2.55;;;2.55;;
71172;SDS011;58875;51.996;4.504;2023-07-13T12:52:37;2.53;;;2.53;;
71172;SDS011;58875;51.996;4.504;2023-07-13T12:55:06;2.74;;;2.74;;
71172;SDS011;58875;51.996;4.504;2023-07-13T12:57:58;2.50;;;2.50;;
71172;SDS011;58875;51.996;4.504;2023-07-13T13:00:27;2.58;;;2.58;;
71172;SDS011;58875;51.996;4.504;2023-07-13T13:02:58;2.50;;;2.50;;
71172;SDS011;58875;51.996;4.504;2023-07-13T13:05:30;2.48;;;2.48;;
71172;SDS011;58875;51.996;4.504;2023-07-13T13:07:58;2.63;;;2.63;;
71172;SDS011;58875;51.996;4.504;2023-07-13T13:10:25;2.69;;;2.69;;
71172;SDS011;58875;51.996;4.504;2023-07-13T13:12:51;2.48;;;2.48;;
71172;SDS011;58875;51.996;4.504;2023-07-13T13:15:17;2.61;;;2.61;;
71172;SDS011;58875;51.996;4.504;2023-07-13T13:17:43;2.32;;;2.32;;
71172;SDS011;58875;51.996;4.504;2023-07-13T13:20:16;2.21;;;2.21;;
71172;SDS011;58875;51.996;4.504;2023-07-13T13:22:43;2.47;;;2.47;;
71172;SDS011;58875;51.996;4.504;2023-07-13T13:25:12;2.53;;;2.53;;
71172;SDS011;58875;51.996;4.504;2023-07-13T13:27:40;2.41;;;2.41;;
71172;SDS011;58875;51.996;4.504;2023-07-13T13:30:11;2.40;;;2.40;;
71172;SDS011;58875;51.996;4.504;2023-07-13T13:32:42;2.26;;;2.26;;
71172;SDS011;58875;51.996;4.504;2023-07-13T13:35:18;2.27;;;2.27;;
71172;SDS011;58875;51.996;4.504;2023-07-13T13:37:45;2.17;;;2.17;;
71172;SDS011;58875;51.996;4.504;2023-07-13T13:40:16;2.54;;;2.54;;
71172;SDS011;58875;51.996;4.504;2023-07-13T13:42:44;2.17;;;2.17;;
71172;SDS011;58875;51.996;4.504;2023-07-13T13:45:10;2.28;;;2.28;;
71172;SDS011;58875;51.996;4.504;2023-07-13T13:47:38;2.17;;;2.17;;
71172;SDS011;58875;51.996;4.504;2023-07-13T13:52:42;2.04;;;2.04;;
71172;SDS011;58875;51.996;4.504;2023-07-13T13:55:14;2.22;;;2.22;;
71172;SDS011;58875;51.996;4.504;2023-07-13T13:57:44;2.18;;;2.18;;
71172;SDS011;58875;51.996;4.504;2023-07-13T14:00:11;2.29;;;2.29;;
71172;SDS011;58875;51.996;4.504;2023-07-13T14:02:39;2.23;;;2.23;;
71172;SDS011;58875;51.996;4.504;2023-07-13T14:05:11;2.37;;;2.37;;
71172;SDS011;58875;51.996;4.504;2023-07-13T14:07:39;2.23;;;2.23;;
71172;SDS011;58875;51.996;4.504;2023-07-13T14:10:10;2.47;;;2.47;;
71172;SDS011;58875;51.996;4.504;2023-07-13T14:12:40;2.39;;;2.39;;
71172;SDS011;58875;51.996;4.504;2023-07-13T14:15:28;2.22;;;2.22;;
71172;SDS011;58875;51.996;4.504;2023-07-13T14:17:57;2.25;;;2.25;;
71172;SDS011;58875;51.996;4.504;2023-07-13T14:20:23;2.35;;;2.35;;
71172;SDS011;58875;51.996;4.504;2023-07-13T14:22:51;2.44;;;2.44;;
71172;SDS011;58875;51.996;4.504;2023-07-13T14:25:19;2.54;;;2.54;;
71172;SDS011;58875;51.996;4.504;2023-07-13T14:27:46;2.33;;;2.33;;
71172;SDS011;58875;51.996;4.504;2023-07-13T14:30:19;2.33;;;2.33;;
71172;SDS011;58875;51.996;4.504;2023-07-13T14:32:47;2.51;;;2.51;;
71172;SDS011;58875;51.996;4.504;2023-07-13T14:35:19;2.24;;;2.24;;
71172;SDS011;58875;51.996;4.504;2023-07-13T14:37:49;2.20;;;2.20;;
71172;SDS011;58875;51.996;4.504;2023-07-13T14:40:24;2.29;;;2.29;;
71172;SDS011;58875;51.996;4.504;2023-07-13T14:46:03;2.55;;;2.55;;
71172;SDS011;58875;51.996;4.504;2023-07-13T14:48:43;2.54;;;2.54;;
71172;SDS011;58875;51.996;4.504;2023-07-13T14:51:29;2.45;;;2.45;;
71172;SDS011;58875;51.996;4.504;2023-07-13T14:53:55;2.75;;;2.75;;
71172;SDS011;58875;51.996;4.504;2023-07-13T14:56:33;2.49;;;2.49;;
71172;SDS011;58875;51.996;4.504;2023-07-13T14:58:59;2.53;;;2.53;;
71172;SDS011;58875;51.996;4.504;2023-07-13T15:04:11;2.54;;;2.54;;
71172;SDS011;58875;51.996;4.504;2023-07-13T15:06:57;2.67;;;2.67;;
71172;SDS011;58875;51.996;4.504;2023-07-13T15:09:27;2.80;;;2.80;;
71172;SDS011;58875;51.996;4.504;2023-07-13T15:12:06;2.84;;;2.84;;
71172;SDS011;58875;51.996;4.504;2023-07-13T15:14:32;2.61;;;2.61;;
71172;SDS011;58875;51.996;4.504;2023-07-13T15:16:58;2.72;;;2.72;;
71172;SDS011;58875;51.996;4.504;2023-07-13T15:19:25;2.45;;;2.45;;
71172;SDS011;58875;51.996;4.504;2023-07-13T15:21:51;2.53;;;2.53;;
71172;SDS011;58875;51.996;4.504;2023-07-13T15:24:20;2.38;;;2.38;;
71172;SDS011;58875;51.996;4.504;2023-07-13T15:26:46;2.52;;;2.52;;
71172;SDS011;58875;51.996;4.504;2023-07-13T15:29:14;2.52;;;2.52;;
71172;SDS011;58875;51.996;4.504;2023-07-13T15:31:40;2.39;;;2.39;;
71172;SDS011;58875;51.996;4.504;2023-07-13T15:34:15;2.60;;;2.60;;
71172;SDS011;58875;51.996;4.504;2023-07-13T15:36:44;2.66;;;2.66;;
71172;SDS011;58875;51.996;4.504;2023-07-13T15:39:14;2.77;;;2.77;;
71172;SDS011;58875;51.996;4.504;2023-07-13T15:41:44;2.84;;;2.84;;
71172;SDS011;58875;51.996;4.504;2023-07-13T15:44:32;2.83;;;2.83;;
71172;SDS011;58875;51.996;4.504;2023-07-13T15:46:59;2.90;;;2.90;;
71172;SDS011;58875;51.996;4.504;2023-07-13T15:49:25;2.85;;;2.85;;
71172;SDS011;58875;51.996;4.504;2023-07-13T15:51:51;2.75;;;2.75;;
71172;SDS011;58875;51.996;4.504;2023-07-13T15:54:18;2.65;;;2.65;;